sensor_id;sensor_type;location;lat;lon;timestamp;pressure;altitude;pressure_sealevel;temperature
8227;BMP180;4154;48.810;9.012;2023-03-05T00:00:36;97305.00;;;3.10
8227;BMP180;4154;48.810;9.012;2023-03-05T00:03:02;97299.00;;;3.20
8227;BMP180;4154;48.810;9.012;2023-03-05T00:05:28;97311.00;;;3.20
8227;BMP180;4154;48.810;9.012;2023-03-05T00:07:53;97313.00;;;3.10
8227;BMP180;4154;48.810;9.012;2023-03-05T00:10:20;97304.00;;;3.20
8227;BMP180;4154;48.810;9.012;2023-03-05T00:12:46;97306.00;;;3.20
8227;BMP180;4154;48.810;9.012;2023-03-05T00:15:12;97314.00;;;3.20
8227;BMP180;4154;48.810;9.012;2023-03-05T00:17:37;97306.00;;;3.20
8227;BMP180;4154;48.810;9.012;2023-03-05T00:20:04;97295.00;;;3.20
8227;BMP180;4154;48.810;9.012;2023-03-05T00:22:30;97304.00;;;3.20
8227;BMP180;4154;48.810;9.012;2023-03-05T00:24:55;97304.00;;;3.20
8227;BMP180;4154;48.810;9.012;2023-03-05T00:27:21;97302.00;;;3.20
8227;BMP180;4154;48.810;9.012;2023-03-05T00:29:47;97293.00;;;3.20
8227;BMP180;4154;48.810;9.012;2023-03-05T00:32:12;97297.00;;;3.20
8227;BMP180;4154;48.810;9.012;2023-03-05T00:34:38;97306.00;;;3.10
8227;BMP180;4154;48.810;9.012;2023-03-05T00:37:03;97293.00;;;3.20
8227;BMP180;4154;48.810;9.012;2023-03-05T00:39:29;97296.00;;;3.20
8227;BMP180;4154;48.810;9.012;2023-03-05T00:41:55;97287.00;;;3.20
8227;BMP180;4154;48.810;9.012;2023-03-05T00:44:20;97291.00;;;3.20
8227;BMP180;4154;48.810;9.012;2023-03-05T00:46:47;97286.00;;;3.20
8227;BMP180;4154;48.810;9.012;2023-03-05T00:49:12;97288.00;;;3.20
8227;BMP180;4154;48.810;9.012;2023-03-05T00:51:38;97284.00;;;3.20
8227;BMP180;4154;48.810;9.012;2023-03-05T00:54:05;97289.00;;;3.20
8227;BMP180;4154;48.810;9.012;2023-03-05T00:56:30;97277.00;;;3.20
8227;BMP180;4154;48.810;9.012;2023-03-05T00:58:56;97279.00;;;3.30
8227;BMP180;4154;48.810;9.012;2023-03-05T01:01:22;97273.00;;;3.20
8227;BMP180;4154;48.810;9.012;2023-03-05T01:03:48;97277.00;;;3.20
8227;BMP180;4154;48.810;9.012;2023-03-05T01:06:14;97268.00;;;3.20
8227;BMP180;4154;48.810;9.012;2023-03-05T01:08:44;97274.00;;;3.30
8227;BMP180;4154;48.810;9.012;2023-03-05T01:11:10;97267.00;;;3.30
8227;BMP180;4154;48.810;9.012;2023-03-05T01:13:37;97271.00;;;3.30
8227;BMP180;4154;48.810;9.012;2023-03-05T01:16:03;97266.00;;;3.30
8227;BMP180;4154;48.810;9.012;2023-03-05T01:18:29;97261.00;;;3.30
8227;BMP180;4154;48.810;9.012;2023-03-05T01:20:54;97254.00;;;3.30
8227;BMP180;4154;48.810;9.012;2023-03-05T01:23:20;97253.00;;;3.30
8227;BMP180;4154;48.810;9.012;2023-03-05T01:25:55;97264.00;;;3.30
8227;BMP180;4154;48.810;9.012;2023-03-05T01:28:21;97252.00;;;3.30
8227;BMP180;4154;48.810;9.012;2023-03-05T01:30:47;97248.00;;;3.30
8227;BMP180;4154;48.810;9.012;2023-03-05T01:33:13;97257.00;;;3.30
8227;BMP180;4154;48.810;9.012;2023-03-05T01:35:40;97236.00;;;3.30
8227;BMP180;4154;48.810;9.012;2023-03-05T01:38:06;97246.00;;;3.40
8227;BMP180;4154;48.810;9.012;2023-03-05T01:40:32;97233.00;;;3.40
8227;BMP180;4154;48.810;9.012;2023-03-05T01:43:12;97233.00;;;3.40
8227;BMP180;4154;48.810;9.012;2023-03-05T01:51:26;97231.00;;;3.40
8227;BMP180;4154;48.810;9.012;2023-03-05T01:53:54;97226.00;;;3.40
8227;BMP180;4154;48.810;9.012;2023-03-05T01:56:21;97221.00;;;3.40
8227;BMP180;4154;48.810;9.012;2023-03-05T01:58:48;97229.00;;;3.40
8227;BMP180;4154;48.810;9.012;2023-03-05T02:01:14;97213.00;;;3.40
8227;BMP180;4154;48.810;9.012;2023-03-05T02:03:41;97216.00;;;3.40
8227;BMP180;4154;48.810;9.012;2023-03-05T02:06:07;97212.00;;;3.40
8227;BMP180;4154;48.810;9.012;2023-03-05T02:08:33;97205.00;;;3.40
8227;BMP180;4154;48.810;9.012;2023-03-05T02:10:59;97202.00;;;3.40
8227;BMP180;4154;48.810;9.012;2023-03-05T02:13:34;97210.00;;;3.40
8227;BMP180;4154;48.810;9.012;2023-03-05T02:16:03;97204.00;;;3.40
8227;BMP180;4154;48.810;9.012;2023-03-05T02:18:29;97208.00;;;3.40
8227;BMP180;4154;48.810;9.012;2023-03-05T02:23:23;97203.00;;;3.40
8227;BMP180;4154;48.810;9.012;2023-03-05T02:25:50;97195.00;;;3.40
8227;BMP180;4154;48.810;9.012;2023-03-05T02:28:37;97201.00;;;3.40
8227;BMP180;4154;48.810;9.012;2023-03-05T02:31:15;97198.00;;;3.40
8227;BMP180;4154;48.810;9.012;2023-03-05T02:33:42;97198.00;;;3.40
8227;BMP180;4154;48.810;9.012;2023-03-05T02:36:08;97193.00;;;3.40
8227;BMP180;4154;48.810;9.012;2023-03-05T02:38:35;97189.00;;;3.40
8227;BMP180;4154;48.810;9.012;2023-03-05T02:41:00;97185.00;;;3.40
8227;BMP180;4154;48.810;9.012;2023-03-05T02:43:26;97193.00;;;3.40
8227;BMP180;4154;48.810;9.012;2023-03-05T02:45:52;97180.00;;;3.40
8227;BMP180;4154;48.810;9.012;2023-03-05T02:48:18;97176.00;;;3.40
8227;BMP180;4154;48.810;9.012;2023-03-05T02:50:45;97184.00;;;3.20
8227;BMP180;4154;48.810;9.012;2023-03-05T02:53:12;97181.00;;;3.30
8227;BMP180;4154;48.810;9.012;2023-03-05T02:55:37;97181.00;;;3.30
8227;BMP180;4154;48.810;9.012;2023-03-05T02:58:04;97177.00;;;3.20
8227;BMP180;4154;48.810;9.012;2023-03-05T03:00:29;97178.00;;;3.20
8227;BMP180;4154;48.810;9.012;2023-03-05T03:02:55;97170.00;;;3.10
8227;BMP180;4154;48.810;9.012;2023-03-05T03:05:21;97169.00;;;3.00
8227;BMP180;4154;48.810;9.012;2023-03-05T03:07:47;97169.00;;;2.90
8227;BMP180;4154;48.810;9.012;2023-03-05T03:10:12;97169.00;;;2.90
8227;BMP180;4154;48.810;9.012;2023-03-05T03:12:41;97174.00;;;2.90
8227;BMP180;4154;48.810;9.012;2023-03-05T03:15:09;97164.00;;;2.90
8227;BMP180;4154;48.810;9.012;2023-03-05T03:17:36;97159.00;;;2.90
8227;BMP180;4154;48.810;9.012;2023-03-05T03:20:05;97159.00;;;3.00
8227;BMP180;4154;48.810;9.012;2023-03-05T03:22:32;97161.00;;;3.00
8227;BMP180;4154;48.810;9.012;2023-03-05T03:24:58;97155.00;;;3.00
8227;BMP180;4154;48.810;9.012;2023-03-05T03:27:24;97153.00;;;3.10
8227;BMP180;4154;48.810;9.012;2023-03-05T03:29:49;97151.00;;;3.10
8227;BMP180;4154;48.810;9.012;2023-03-05T03:32:15;97137.00;;;3.00
8227;BMP180;4154;48.810;9.012;2023-03-05T03:34:41;97144.00;;;3.20
8227;BMP180;4154;48.810;9.012;2023-03-05T03:37:06;97135.00;;;3.10
8227;BMP180;4154;48.810;9.012;2023-03-05T03:39:33;97134.00;;;3.20
8227;BMP180;4154;48.810;9.012;2023-03-05T03:41:59;97129.00;;;3.20
8227;BMP180;4154;48.810;9.012;2023-03-05T03:44:26;97128.00;;;3.20
8227;BMP180;4154;48.810;9.012;2023-03-05T03:46:51;97131.00;;;3.20
8227;BMP180;4154;48.810;9.012;2023-03-05T03:49:24;97126.00;;;3.20
8227;BMP180;4154;48.810;9.012;2023-03-05T03:51:52;97119.00;;;3.20
8227;BMP180;4154;48.810;9.012;2023-03-05T03:54:23;97122.00;;;3.30
8227;BMP180;4154;48.810;9.012;2023-03-05T03:56:49;97125.00;;;3.30
8227;BMP180;4154;48.810;9.012;2023-03-05T03:59:14;97122.00;;;3.30
8227;BMP180;4154;48.810;9.012;2023-03-05T04:01:40;97123.00;;;3.30
8227;BMP180;4154;48.810;9.012;2023-03-05T04:04:06;97117.00;;;3.30
8227;BMP180;4154;48.810;9.012;2023-03-05T04:06:32;97131.00;;;3.30
8227;BMP180;4154;48.810;9.012;2023-03-05T04:08:58;97119.00;;;3.20
8227;BMP180;4154;48.810;9.012;2023-03-05T04:11:24;97118.00;;;3.30
8227;BMP180;4154;48.810;9.012;2023-03-05T04:13:50;97117.00;;;3.30
8227;BMP180;4154;48.810;9.012;2023-03-05T04:16:17;97118.00;;;3.30
8227;BMP180;4154;48.810;9.012;2023-03-05T04:18:44;97108.00;;;3.20
8227;BMP180;4154;48.810;9.012;2023-03-05T04:21:10;97110.00;;;3.20
8227;BMP180;4154;48.810;9.012;2023-03-05T04:23:37;97105.00;;;3.20
8227;BMP180;4154;48.810;9.012;2023-03-05T04:26:03;97117.00;;;3.20
8227;BMP180;4154;48.810;9.012;2023-03-05T04:28:29;97106.00;;;3.20
8227;BMP180;4154;48.810;9.012;2023-03-05T04:30:54;97105.00;;;3.20
8227;BMP180;4154;48.810;9.012;2023-03-05T04:33:20;97108.00;;;3.20
8227;BMP180;4154;48.810;9.012;2023-03-05T04:35:46;97093.00;;;3.20
8227;BMP180;4154;48.810;9.012;2023-03-05T04:38:12;97099.00;;;3.20
8227;BMP180;4154;48.810;9.012;2023-03-05T04:40:38;97103.00;;;3.20
8227;BMP180;4154;48.810;9.012;2023-03-05T04:43:04;97092.00;;;3.20
8227;BMP180;4154;48.810;9.012;2023-03-05T04:45:31;97104.00;;;3.20
8227;BMP180;4154;48.810;9.012;2023-03-05T04:47:57;97095.00;;;3.20
8227;BMP180;4154;48.810;9.012;2023-03-05T04:50:23;97097.00;;;3.20
8227;BMP180;4154;48.810;9.012;2023-03-05T04:52:48;97091.00;;;3.20
8227;BMP180;4154;48.810;9.012;2023-03-05T04:55:16;97094.00;;;3.20
8227;BMP180;4154;48.810;9.012;2023-03-05T04:57:43;97087.00;;;3.20
8227;BMP180;4154;48.810;9.012;2023-03-05T05:00:12;97090.00;;;3.20
8227;BMP180;4154;48.810;9.012;2023-03-05T05:02:45;97090.00;;;3.00
8227;BMP180;4154;48.810;9.012;2023-03-05T05:05:17;97091.00;;;3.20
8227;BMP180;4154;48.810;9.012;2023-03-05T05:07:43;97079.00;;;3.00
8227;BMP180;4154;48.810;9.012;2023-03-05T05:10:11;97079.00;;;3.10
8227;BMP180;4154;48.810;9.012;2023-03-05T05:12:38;97078.00;;;3.00
8227;BMP180;4154;48.810;9.012;2023-03-05T05:15:06;97072.00;;;3.00
8227;BMP180;4154;48.810;9.012;2023-03-05T05:17:32;97071.00;;;3.00
8227;BMP180;4154;48.810;9.012;2023-03-05T05:19:59;97069.00;;;3.10
8227;BMP180;4154;48.810;9.012;2023-03-05T05:22:28;97077.00;;;3.00
8227;BMP180;4154;48.810;9.012;2023-03-05T05:24:54;97069.00;;;3.10
8227;BMP180;4154;48.810;9.012;2023-03-05T05:27:21;97080.00;;;3.10
8227;BMP180;4154;48.810;9.012;2023-03-05T05:29:46;97072.00;;;3.00
8227;BMP180;4154;48.810;9.012;2023-03-05T05:32:16;97080.00;;;3.10
8227;BMP180;4154;48.810;9.012;2023-03-05T05:34:42;97077.00;;;3.10
8227;BMP180;4154;48.810;9.012;2023-03-05T05:37:07;97077.00;;;3.10
8227;BMP180;4154;48.810;9.012;2023-03-05T05:39:34;97076.00;;;3.10
8227;BMP180;4154;48.810;9.012;2023-03-05T05:42:00;97078.00;;;3.10
8227;BMP180;4154;48.810;9.012;2023-03-05T05:44:26;97072.00;;;3.00
8227;BMP180;4154;48.810;9.012;2023-03-05T05:46:52;97081.00;;;3.10
8227;BMP180;4154;48.810;9.012;2023-03-05T05:49:17;97071.00;;;3.10
8227;BMP180;4154;48.810;9.012;2023-03-05T05:51:43;97072.00;;;3.00
8227;BMP180;4154;48.810;9.012;2023-03-05T05:54:12;97067.00;;;3.10
8227;BMP180;4154;48.810;9.012;2023-03-05T05:56:38;97068.00;;;3.10
8227;BMP180;4154;48.810;9.012;2023-03-05T05:59:04;97071.00;;;3.20
8227;BMP180;4154;48.810;9.012;2023-03-05T06:01:31;97070.00;;;3.20
8227;BMP180;4154;48.810;9.012;2023-03-05T06:03:58;97078.00;;;3.10
8227;BMP180;4154;48.810;9.012;2023-03-05T06:06:26;97073.00;;;3.10
8227;BMP180;4154;48.810;9.012;2023-03-05T06:08:53;97069.00;;;3.20
8227;BMP180;4154;48.810;9.012;2023-03-05T06:11:19;97075.00;;;3.10
8227;BMP180;4154;48.810;9.012;2023-03-05T06:13:47;97076.00;;;3.20
8227;BMP180;4154;48.810;9.012;2023-03-05T06:16:17;97080.00;;;3.20
8227;BMP180;4154;48.810;9.012;2023-03-05T06:18:43;97075.00;;;3.20
8227;BMP180;4154;48.810;9.012;2023-03-05T06:21:12;97071.00;;;3.10
8227;BMP180;4154;48.810;9.012;2023-03-05T06:23:39;97071.00;;;3.00
8227;BMP180;4154;48.810;9.012;2023-03-05T06:26:08;97072.00;;;3.20
8227;BMP180;4154;48.810;9.012;2023-03-05T06:28:34;97073.00;;;3.20
8227;BMP180;4154;48.810;9.012;2023-03-05T06:31:17;97077.00;;;3.20
8227;BMP180;4154;48.810;9.012;2023-03-05T06:33:44;97072.00;;;3.20
8227;BMP180;4154;48.810;9.012;2023-03-05T06:36:15;97079.00;;;3.20
8227;BMP180;4154;48.810;9.012;2023-03-05T06:38:42;97081.00;;;3.10
8227;BMP180;4154;48.810;9.012;2023-03-05T06:41:12;97060.00;;;3.20
8227;BMP180;4154;48.810;9.012;2023-03-05T06:43:41;97069.00;;;3.20
8227;BMP180;4154;48.810;9.012;2023-03-05T06:46:14;97066.00;;;3.10
8227;BMP180;4154;48.810;9.012;2023-03-05T06:48:41;97077.00;;;3.20
8227;BMP180;4154;48.810;9.012;2023-03-05T06:51:26;97072.00;;;3.30
8227;BMP180;4154;48.810;9.012;2023-03-05T06:53:54;97054.00;;;3.20
8227;BMP180;4154;48.810;9.012;2023-03-05T06:56:21;97058.00;;;3.30
8227;BMP180;4154;48.810;9.012;2023-03-05T06:58:50;97069.00;;;3.30
8227;BMP180;4154;48.810;9.012;2023-03-05T07:01:17;97060.00;;;3.30
8227;BMP180;4154;48.810;9.012;2023-03-05T07:03:43;97059.00;;;3.40
8227;BMP180;4154;48.810;9.012;2023-03-05T07:06:14;97060.00;;;3.40
8227;BMP180;4154;48.810;9.012;2023-03-05T07:08:41;97065.00;;;3.40
8227;BMP180;4154;48.810;9.012;2023-03-05T07:11:13;97056.00;;;3.40
8227;BMP180;4154;48.810;9.012;2023-03-05T07:13:40;97058.00;;;3.40
8227;BMP180;4154;48.810;9.012;2023-03-05T07:16:09;97062.00;;;3.50
8227;BMP180;4154;48.810;9.012;2023-03-05T07:18:35;97053.00;;;3.50
8227;BMP180;4154;48.810;9.012;2023-03-05T07:21:07;97054.00;;;3.50
8227;BMP180;4154;48.810;9.012;2023-03-05T07:23:34;97055.00;;;3.50
8227;BMP180;4154;48.810;9.012;2023-03-05T07:26:01;97054.00;;;3.50
8227;BMP180;4154;48.810;9.012;2023-03-05T07:28:28;97046.00;;;3.50
8227;BMP180;4154;48.810;9.012;2023-03-05T07:30:59;97055.00;;;3.60
8227;BMP180;4154;48.810;9.012;2023-03-05T07:33:26;97060.00;;;3.50
8227;BMP180;4154;48.810;9.012;2023-03-05T07:35:52;97048.00;;;3.60
8227;BMP180;4154;48.810;9.012;2023-03-05T07:38:20;97059.00;;;3.60
8227;BMP180;4154;48.810;9.012;2023-03-05T07:40:48;97056.00;;;3.60
8227;BMP180;4154;48.810;9.012;2023-03-05T07:43:14;97051.00;;;3.70
8227;BMP180;4154;48.810;9.012;2023-03-05T07:45:42;97056.00;;;3.60
8227;BMP180;4154;48.810;9.012;2023-03-05T07:48:15;97046.00;;;3.60
8227;BMP180;4154;48.810;9.012;2023-03-05T07:50:41;97048.00;;;3.70
8227;BMP180;4154;48.810;9.012;2023-03-05T07:53:08;97051.00;;;3.70
8227;BMP180;4154;48.810;9.012;2023-03-05T07:55:33;97052.00;;;3.70
8227;BMP180;4154;48.810;9.012;2023-03-05T07:57:59;97048.00;;;3.70
8227;BMP180;4154;48.810;9.012;2023-03-05T08:00:25;97049.00;;;3.70
8227;BMP180;4154;48.810;9.012;2023-03-05T08:02:51;97040.00;;;3.60
8227;BMP180;4154;48.810;9.012;2023-03-05T08:05:16;97054.00;;;3.70
8227;BMP180;4154;48.810;9.012;2023-03-05T08:07:42;97045.00;;;3.70
8227;BMP180;4154;48.810;9.012;2023-03-05T08:10:09;97050.00;;;3.70
8227;BMP180;4154;48.810;9.012;2023-03-05T08:12:35;97049.00;;;3.80
8227;BMP180;4154;48.810;9.012;2023-03-05T08:15:01;97051.00;;;3.80
8227;BMP180;4154;48.810;9.012;2023-03-05T08:17:26;97046.00;;;3.90
8227;BMP180;4154;48.810;9.012;2023-03-05T08:19:52;97037.00;;;4.00
8227;BMP180;4154;48.810;9.012;2023-03-05T08:22:22;97039.00;;;4.00
8227;BMP180;4154;48.810;9.012;2023-03-05T08:24:47;97047.00;;;3.90
8227;BMP180;4154;48.810;9.012;2023-03-05T08:27:14;97039.00;;;3.90
8227;BMP180;4154;48.810;9.012;2023-03-05T08:29:39;97039.00;;;4.00
8227;BMP180;4154;48.810;9.012;2023-03-05T08:32:05;97036.00;;;4.00
8227;BMP180;4154;48.810;9.012;2023-03-05T08:34:31;97042.00;;;4.10
8227;BMP180;4154;48.810;9.012;2023-03-05T08:36:56;97029.00;;;4.00
8227;BMP180;4154;48.810;9.012;2023-03-05T08:39:22;97033.00;;;4.00
8227;BMP180;4154;48.810;9.012;2023-03-05T08:41:48;97032.00;;;4.00
8227;BMP180;4154;48.810;9.012;2023-03-05T08:44:14;97034.00;;;4.10
8227;BMP180;4154;48.810;9.012;2023-03-05T08:46:39;97032.00;;;4.00
8227;BMP180;4154;48.810;9.012;2023-03-05T08:49:06;97029.00;;;4.10
8227;BMP180;4154;48.810;9.012;2023-03-05T08:51:33;97027.00;;;4.10
8227;BMP180;4154;48.810;9.012;2023-03-05T08:54:00;97021.00;;;4.10
8227;BMP180;4154;48.810;9.012;2023-03-05T08:56:27;97024.00;;;4.10
8227;BMP180;4154;48.810;9.012;2023-03-05T08:58:55;97028.00;;;4.20
8227;BMP180;4154;48.810;9.012;2023-03-05T09:01:21;97026.00;;;4.30
8227;BMP180;4154;48.810;9.012;2023-03-05T09:03:48;97020.00;;;4.30
8227;BMP180;4154;48.810;9.012;2023-03-05T09:06:14;97014.00;;;4.30
8227;BMP180;4154;48.810;9.012;2023-03-05T09:08:40;97019.00;;;4.20
8227;BMP180;4154;48.810;9.012;2023-03-05T09:11:08;97009.00;;;4.20
8227;BMP180;4154;48.810;9.012;2023-03-05T09:13:35;97013.00;;;4.20
8227;BMP180;4154;48.810;9.012;2023-03-05T09:16:10;97015.00;;;4.20
8227;BMP180;4154;48.810;9.012;2023-03-05T09:18:37;97016.00;;;4.20
8227;BMP180;4154;48.810;9.012;2023-03-05T09:21:14;97014.00;;;4.20
8227;BMP180;4154;48.810;9.012;2023-03-05T09:23:42;97012.00;;;4.20
8227;BMP180;4154;48.810;9.012;2023-03-05T09:26:10;97008.00;;;4.20
8227;BMP180;4154;48.810;9.012;2023-03-05T09:28:37;97003.00;;;4.30
8227;BMP180;4154;48.810;9.012;2023-03-05T09:31:07;97005.00;;;4.30
8227;BMP180;4154;48.810;9.012;2023-03-05T09:33:34;97007.00;;;4.40
8227;BMP180;4154;48.810;9.012;2023-03-05T09:36:02;96999.00;;;4.40
8227;BMP180;4154;48.810;9.012;2023-03-05T09:38:28;97001.00;;;4.40
8227;BMP180;4154;48.810;9.012;2023-03-05T09:41:06;96993.00;;;4.50
8227;BMP180;4154;48.810;9.012;2023-03-05T09:49:57;96993.00;;;4.60
8227;BMP180;4154;48.810;9.012;2023-03-05T09:52:41;96983.00;;;4.50
8227;BMP180;4154;48.810;9.012;2023-03-05T09:55:23;96978.00;;;4.60
8227;BMP180;4154;48.810;9.012;2023-03-05T09:57:56;96977.00;;;4.70
8227;BMP180;4154;48.810;9.012;2023-03-05T10:00:53;96980.00;;;4.70
8227;BMP180;4154;48.810;9.012;2023-03-05T10:03:29;96978.00;;;4.70
8227;BMP180;4154;48.810;9.012;2023-03-05T10:06:16;96970.00;;;4.70
8227;BMP180;4154;48.810;9.012;2023-03-05T10:08:56;96965.00;;;4.60
8227;BMP180;4154;48.810;9.012;2023-03-05T10:12:00;96965.00;;;4.60
8227;BMP180;4154;48.810;9.012;2023-03-05T10:14:33;96967.00;;;4.60
8227;BMP180;4154;48.810;9.012;2023-03-05T10:20:03;96973.00;;;4.60
8227;BMP180;4154;48.810;9.012;2023-03-05T10:32:00;96965.00;;;4.60
8227;BMP180;4154;48.810;9.012;2023-03-05T10:35:11;96962.00;;;4.70
8227;BMP180;4154;48.810;9.012;2023-03-05T10:40:53;96941.00;;;4.80
8227;BMP180;4154;48.810;9.012;2023-03-05T10:46:20;96943.00;;;4.70
8227;BMP180;4154;48.810;9.012;2023-03-05T10:48:58;96938.00;;;4.70
8227;BMP180;4154;48.810;9.012;2023-03-05T10:51:42;96946.00;;;4.80
8227;BMP180;4154;48.810;9.012;2023-03-05T10:54:33;96940.00;;;4.70
8227;BMP180;4154;48.810;9.012;2023-03-05T11:00:00;96934.00;;;4.60
8227;BMP180;4154;48.810;9.012;2023-03-05T11:02:26;96931.00;;;4.50
8227;BMP180;4154;48.810;9.012;2023-03-05T11:04:52;96930.00;;;4.40
8227;BMP180;4154;48.810;9.012;2023-03-05T11:12:34;96924.00;;;4.20
8227;BMP180;4154;48.810;9.012;2023-03-05T11:15:26;96928.00;;;4.30
8227;BMP180;4154;48.810;9.012;2023-03-05T11:18:18;96922.00;;;4.30
8227;BMP180;4154;48.810;9.012;2023-03-05T11:20:46;96925.00;;;4.30
8227;BMP180;4154;48.810;9.012;2023-03-05T11:23:18;96924.00;;;4.30
8227;BMP180;4154;48.810;9.012;2023-03-05T11:28:37;96920.00;;;4.20
8227;BMP180;4154;48.810;9.012;2023-03-05T11:31:28;96920.00;;;4.20
8227;BMP180;4154;48.810;9.012;2023-03-05T11:37:01;96910.00;;;4.20
8227;BMP180;4154;48.810;9.012;2023-03-05T11:39:33;96907.00;;;4.40
8227;BMP180;4154;48.810;9.012;2023-03-05T11:42:12;96900.00;;;4.40
8227;BMP180;4154;48.810;9.012;2023-03-05T11:47:49;96894.00;;;4.40
8227;BMP180;4154;48.810;9.012;2023-03-05T11:52:57;96895.00;;;4.40
8227;BMP180;4154;48.810;9.012;2023-03-05T11:55:35;96897.00;;;4.40
8227;BMP180;4154;48.810;9.012;2023-03-05T11:58:23;96892.00;;;4.30
8227;BMP180;4154;48.810;9.012;2023-03-05T12:00:50;96884.00;;;4.20
8227;BMP180;4154;48.810;9.012;2023-03-05T12:03:22;96884.00;;;4.20
8227;BMP180;4154;48.810;9.012;2023-03-05T12:05:54;96869.00;;;4.20
8227;BMP180;4154;48.810;9.012;2023-03-05T12:08:31;96870.00;;;4.20
8227;BMP180;4154;48.810;9.012;2023-03-05T12:11:05;96869.00;;;4.20
8227;BMP180;4154;48.810;9.012;2023-03-05T12:13:47;96872.00;;;4.30
8227;BMP180;4154;48.810;9.012;2023-03-05T12:16:44;96856.00;;;4.20
8227;BMP180;4154;48.810;9.012;2023-03-05T12:19:47;96854.00;;;4.20
8227;BMP180;4154;48.810;9.012;2023-03-05T12:22:36;96850.00;;;4.20
8227;BMP180;4154;48.810;9.012;2023-03-05T12:25:32;96856.00;;;4.30
8227;BMP180;4154;48.810;9.012;2023-03-05T12:27:59;96853.00;;;4.20
8227;BMP180;4154;48.810;9.012;2023-03-05T12:33:03;96841.00;;;4.40
8227;BMP180;4154;48.810;9.012;2023-03-05T12:38:03;96828.00;;;4.50
8227;BMP180;4154;48.810;9.012;2023-03-05T12:40:33;96826.00;;;4.60
8227;BMP180;4154;48.810;9.012;2023-03-05T12:46:23;96821.00;;;4.70
8227;BMP180;4154;48.810;9.012;2023-03-05T12:48:49;96813.00;;;4.70
8227;BMP180;4154;48.810;9.012;2023-03-05T12:51:36;96802.00;;;4.60
8227;BMP180;4154;48.810;9.012;2023-03-05T12:54:37;96803.00;;;4.70
8227;BMP180;4154;48.810;9.012;2023-03-05T12:57:18;96793.00;;;4.70
8227;BMP180;4154;48.810;9.012;2023-03-05T12:59:53;96798.00;;;4.60
8227;BMP180;4154;48.810;9.012;2023-03-05T13:02:38;96797.00;;;4.70
8227;BMP180;4154;48.810;9.012;2023-03-05T13:05:30;96793.00;;;4.80
8227;BMP180;4154;48.810;9.012;2023-03-05T13:08:22;96798.00;;;4.80
8227;BMP180;4154;48.810;9.012;2023-03-05T13:11:17;96791.00;;;4.80
8227;BMP180;4154;48.810;9.012;2023-03-05T13:13:47;96785.00;;;4.70
8227;BMP180;4154;48.810;9.012;2023-03-05T13:16:34;96784.00;;;4.70
8227;BMP180;4154;48.810;9.012;2023-03-05T13:19:01;96791.00;;;4.70
8227;BMP180;4154;48.810;9.012;2023-03-05T13:21:32;96781.00;;;4.60
8227;BMP180;4154;48.810;9.012;2023-03-05T13:24:00;96781.00;;;4.60
8227;BMP180;4154;48.810;9.012;2023-03-05T13:26:37;96787.00;;;4.60
8227;BMP180;4154;48.810;9.012;2023-03-05T13:29:16;96785.00;;;4.70
8227;BMP180;4154;48.810;9.012;2023-03-05T13:32:09;96787.00;;;4.80
8227;BMP180;4154;48.810;9.012;2023-03-05T13:34:43;96789.00;;;4.80
8227;BMP180;4154;48.810;9.012;2023-03-05T13:37:23;96782.00;;;4.70
8227;BMP180;4154;48.810;9.012;2023-03-05T13:40:03;96781.00;;;4.70
8227;BMP180;4154;48.810;9.012;2023-03-05T13:42:34;96782.00;;;4.70
8227;BMP180;4154;48.810;9.012;2023-03-05T13:47:34;96774.00;;;4.50
8227;BMP180;4154;48.810;9.012;2023-03-05T13:50:06;96765.00;;;4.50
8227;BMP180;4154;48.810;9.012;2023-03-05T13:52:37;96767.00;;;4.50
8227;BMP180;4154;48.810;9.012;2023-03-05T13:55:15;96769.00;;;4.50
8227;BMP180;4154;48.810;9.012;2023-03-05T13:57:45;96772.00;;;4.50
8227;BMP180;4154;48.810;9.012;2023-03-05T14:00:36;96767.00;;;4.40
8227;BMP180;4154;48.810;9.012;2023-03-05T14:03:29;96761.00;;;4.40
8227;BMP180;4154;48.810;9.012;2023-03-05T14:05:55;96759.00;;;4.40
8227;BMP180;4154;48.810;9.012;2023-03-05T14:08:28;96754.00;;;4.40
8227;BMP180;4154;48.810;9.012;2023-03-05T14:10:56;96750.00;;;4.30
8227;BMP180;4154;48.810;9.012;2023-03-05T14:13:25;96758.00;;;4.40
8227;BMP180;4154;48.810;9.012;2023-03-05T14:18:33;96754.00;;;4.40
8227;BMP180;4154;48.810;9.012;2023-03-05T14:21:10;96744.00;;;4.30
8227;BMP180;4154;48.810;9.012;2023-03-05T14:23:44;96734.00;;;4.30
8227;BMP180;4154;48.810;9.012;2023-03-05T14:32:06;96740.00;;;4.40
8227;BMP180;4154;48.810;9.012;2023-03-05T14:34:36;96731.00;;;4.30
8227;BMP180;4154;48.810;9.012;2023-03-05T14:37:21;96721.00;;;4.30
8227;BMP180;4154;48.810;9.012;2023-03-05T14:39:55;96715.00;;;4.20
8227;BMP180;4154;48.810;9.012;2023-03-05T14:43:14;96719.00;;;4.30
8227;BMP180;4154;48.810;9.012;2023-03-05T14:45:26;96715.00;;;4.30
8227;BMP180;4154;48.810;9.012;2023-03-05T14:47:55;96709.00;;;4.40
8227;BMP180;4154;48.810;9.012;2023-03-05T14:50:28;96709.00;;;4.30
8227;BMP180;4154;48.810;9.012;2023-03-05T14:53:02;96703.00;;;4.20
8227;BMP180;4154;48.810;9.012;2023-03-05T14:55:31;96704.00;;;4.10
8227;BMP180;4154;48.810;9.012;2023-03-05T14:58:30;96701.00;;;4.10
8227;BMP180;4154;48.810;9.012;2023-03-05T15:00:57;96695.00;;;4.20
8227;BMP180;4154;48.810;9.012;2023-03-05T15:03:27;96692.00;;;4.10
8227;BMP180;4154;48.810;9.012;2023-03-05T15:05:57;96694.00;;;4.20
8227;BMP180;4154;48.810;9.012;2023-03-05T15:08:29;96689.00;;;4.10
8227;BMP180;4154;48.810;9.012;2023-03-05T15:10:57;96695.00;;;4.10
8227;BMP180;4154;48.810;9.012;2023-03-05T15:13:25;96683.00;;;4.10
8227;BMP180;4154;48.810;9.012;2023-03-05T15:15:53;96684.00;;;4.10
8227;BMP180;4154;48.810;9.012;2023-03-05T15:18:21;96679.00;;;4.10
8227;BMP180;4154;48.810;9.012;2023-03-05T15:20:47;96680.00;;;4.10
8227;BMP180;4154;48.810;9.012;2023-03-05T15:23:15;96678.00;;;4.10
8227;BMP180;4154;48.810;9.012;2023-03-05T15:25:41;96676.00;;;4.10
8227;BMP180;4154;48.810;9.012;2023-03-05T15:28:07;96669.00;;;4.00
8227;BMP180;4154;48.810;9.012;2023-03-05T15:30:40;96664.00;;;4.10
8227;BMP180;4154;48.810;9.012;2023-03-05T15:33:11;96657.00;;;4.10
8227;BMP180;4154;48.810;9.012;2023-03-05T15:35:38;96663.00;;;4.10
8227;BMP180;4154;48.810;9.012;2023-03-05T15:38:04;96654.00;;;4.10
8227;BMP180;4154;48.810;9.012;2023-03-05T15:40:30;96665.00;;;4.10
8227;BMP180;4154;48.810;9.012;2023-03-05T15:42:58;96657.00;;;4.10
8227;BMP180;4154;48.810;9.012;2023-03-05T15:45:24;96654.00;;;4.10
8227;BMP180;4154;48.810;9.012;2023-03-05T15:47:53;96645.00;;;4.20
8227;BMP180;4154;48.810;9.012;2023-03-05T15:50:20;96634.00;;;4.10
8227;BMP180;4154;48.810;9.012;2023-03-05T15:52:47;96626.00;;;4.00
8227;BMP180;4154;48.810;9.012;2023-03-05T15:55:13;96639.00;;;4.10
8227;BMP180;4154;48.810;9.012;2023-03-05T15:57:48;96631.00;;;4.10
8227;BMP180;4154;48.810;9.012;2023-03-05T16:00:19;96623.00;;;4.10
8227;BMP180;4154;48.810;9.012;2023-03-05T16:02:48;96629.00;;;4.10
8227;BMP180;4154;48.810;9.012;2023-03-05T16:05:15;96629.00;;;4.00
8227;BMP180;4154;48.810;9.012;2023-03-05T16:07:45;96620.00;;;4.00
8227;BMP180;4154;48.810;9.012;2023-03-05T16:10:19;96622.00;;;4.10
8227;BMP180;4154;48.810;9.012;2023-03-05T16:12:50;96618.00;;;4.00
8227;BMP180;4154;48.810;9.012;2023-03-05T16:15:19;96615.00;;;4.10
8227;BMP180;4154;48.810;9.012;2023-03-05T16:17:53;96616.00;;;4.00